createdAt,value
2023-08-28T00:02:18.214Z,2.65
2023-08-28T00:04:47.066Z,2.45
2023-08-28T00:07:14.568Z,2.70
2023-08-28T00:09:43.742Z,3.00
2023-08-28T00:12:16.503Z,2.90
2023-08-28T00:14:43.132Z,2.40
2023-08-28T00:17:09.738Z,3.13
2023-08-28T00:19:38.535Z,2.80
2023-08-28T00:22:05.190Z,3.00
2023-08-28T00:24:36.436Z,2.72
2023-08-28T00:27:05.571Z,3.10
2023-08-28T00:29:35.350Z,2.75
2023-08-28T00:32:02.269Z,3.00
2023-08-28T00:34:31.244Z,2.97
2023-08-28T00:37:00.053Z,2.90
2023-08-28T00:39:26.678Z,2.60
2023-08-28T00:41:56.668Z,2.78
2023-08-28T00:44:25.595Z,2.42
2023-08-28T00:46:54.888Z,2.43
2023-08-28T00:49:23.972Z,2.60
2023-08-28T00:51:51.110Z,2.33
2023-08-28T00:54:20.411Z,2.78
2023-08-28T00:56:51.210Z,2.70
2023-08-28T00:59:21.756Z,2.30
2023-08-28T01:01:48.532Z,2.65
2023-08-28T01:04:18.015Z,2.55
2023-08-28T01:07:02.984Z,2.80
2023-08-28T01:10:01.061Z,2.70
2023-08-28T01:12:42.494Z,2.77
2023-08-28T01:15:22.046Z,2.80
2023-08-28T01:17:56.782Z,2.72
2023-08-28T01:20:25.299Z,2.85
2023-08-28T01:22:57.965Z,3.22
2023-08-28T01:25:30.969Z,2.70
2023-08-28T01:27:59.564Z,3.40
2023-08-28T01:30:27.156Z,3.17
2023-08-28T01:32:53.851Z,2.90
2023-08-28T01:35:25.496Z,3.00
2023-08-28T01:38:12.464Z,3.00
2023-08-28T01:40:55.612Z,2.80
2023-08-28T01:43:28.867Z,3.03
2023-08-28T01:45:59.317Z,2.58
2023-08-28T01:48:31.716Z,2.58
2023-08-28T01:50:58.287Z,2.60
2023-08-28T01:53:27.011Z,2.80
2023-08-28T01:56:08.792Z,2.67
2023-08-28T01:58:38.140Z,2.97
2023-08-28T02:01:07.215Z,3.08
2023-08-28T02:03:34.205Z,2.70
2023-08-28T02:06:03.418Z,2.50
2023-08-28T02:08:30.020Z,2.25
2023-08-28T02:10:58.929Z,2.10
2023-08-28T02:13:28.624Z,1.92
2023-08-28T02:15:57.719Z,2.20
2023-08-28T02:18:26.800Z,2.10
2023-08-28T02:20:54.060Z,2.08
2023-08-28T02:23:23.320Z,1.80
2023-08-28T02:25:50.269Z,2.10
2023-08-28T02:28:19.478Z,2.00
2023-08-28T02:30:46.887Z,2.40
2023-08-28T02:33:16.136Z,1.60
2023-08-28T02:35:47.492Z,1.90
2023-08-28T02:38:17.075Z,1.90
2023-08-28T02:40:43.805Z,1.17
2023-08-28T02:43:10.735Z,1.45
2023-08-28T02:45:42.632Z,1.48
2023-08-28T02:48:15.660Z,1.17
2023-08-28T02:50:42.389Z,1.30
2023-08-28T02:53:08.948Z,1.20
2023-08-28T02:55:42.170Z,1.40
2023-08-28T02:58:12.109Z,1.30
2023-08-28T03:00:44.180Z,1.50
2023-08-28T03:03:13.530Z,1.10
2023-08-28T03:05:47.523Z,1.20
2023-08-28T03:08:14.324Z,1.10
2023-08-28T03:10:43.173Z,1.70
2023-08-28T03:13:12.793Z,1.55
2023-08-28T03:15:43.548Z,1.50
2023-08-28T03:18:12.405Z,1.23
2023-08-28T03:20:39.014Z,1.70
2023-08-28T03:23:10.664Z,1.30
2023-08-28T03:25:42.445Z,1.30
2023-08-28T03:28:13.780Z,1.42
2023-08-28T03:30:40.381Z,1.30
2023-08-28T03:33:09.257Z,1.00
2023-08-28T03:35:38.054Z,1.05
2023-08-28T03:38:04.948Z,1.15
2023-08-28T03:40:33.738Z,1.50
2023-08-28T03:43:03.469Z,1.40
2023-08-28T03:45:32.615Z,1.33
2023-08-28T03:48:02.723Z,1.60
2023-08-28T03:50:34.378Z,1.30
2023-08-28T03:53:02.489Z,1.30
2023-08-28T03:55:30.599Z,1.40
2023-08-28T03:58:03.499Z,1.00
2023-08-28T04:00:34.041Z,1.42
2023-08-28T04:03:00.826Z,0.90
2023-08-28T04:05:34.213Z,1.27
2023-08-28T04:08:01.388Z,0.80
2023-08-28T04:10:33.180Z,1.15
2023-08-28T04:13:02.126Z,1.00
2023-08-28T04:15:29.391Z,1.38
2023-08-28T04:17:57.742Z,1.00
2023-08-28T04:20:24.356Z,0.90
2023-08-28T04:22:50.977Z,1.10
2023-08-28T04:25:20.797Z,1.20
2023-08-28T04:27:47.425Z,0.90
2023-08-28T04:30:14.687Z,0.90
2023-08-28T04:32:41.424Z,1.00
2023-08-28T04:35:08.547Z,0.90
2023-08-28T04:37:35.539Z,0.98
2023-08-28T04:40:02.300Z,1.02
2023-08-28T04:42:28.924Z,1.02
2023-08-28T04:44:57.849Z,0.90
2023-08-28T04:47:26.815Z,1.15
2023-08-28T04:49:55.763Z,0.82
2023-08-28T04:52:23.404Z,0.95
2023-08-28T04:54:50.068Z,0.90
2023-08-28T04:57:16.722Z,1.00
2023-08-28T04:59:43.382Z,1.10
2023-08-28T05:02:14.698Z,0.75
2023-08-28T05:04:41.313Z,1.00
2023-08-28T05:07:08.907Z,1.13
2023-08-28T05:09:35.687Z,1.00
2023-08-28T05:12:04.665Z,0.80
2023-08-28T05:14:33.503Z,0.88
2023-08-28T05:17:02.395Z,1.08
2023-08-28T05:19:28.957Z,1.20
2023-08-28T05:21:55.556Z,1.00
2023-08-28T05:24:22.122Z,0.95
2023-08-28T05:26:48.720Z,1.02
2023-08-28T05:29:15.429Z,1.10
2023-08-28T05:31:42.063Z,0.70
2023-08-28T05:34:10.098Z,0.83
2023-08-28T05:36:39.308Z,0.75
2023-08-28T05:39:06.185Z,0.90
2023-08-28T05:41:32.848Z,1.00
2023-08-28T05:43:59.578Z,0.98
2023-08-28T05:46:28.780Z,0.93
2023-08-28T05:48:57.711Z,0.90
2023-08-28T05:51:26.830Z,1.42
2023-08-28T05:53:55.508Z,0.80
2023-08-28T05:56:22.147Z,1.00
2023-08-28T05:58:51.791Z,0.73
2023-08-28T06:01:21.000Z,0.80
2023-08-28T06:03:52.125Z,0.77
2023-08-28T06:06:18.877Z,0.70
2023-08-28T06:08:48.716Z,0.80
2023-08-28T06:11:15.304Z,0.80
2023-08-28T06:13:42.020Z,0.90
2023-08-28T06:16:10.696Z,0.90
2023-08-28T06:18:39.666Z,0.80
2023-08-28T06:21:06.281Z,1.17
2023-08-28T06:23:32.935Z,0.87
2023-08-28T06:25:59.572Z,0.85
2023-08-28T06:28:26.230Z,0.75
2023-08-28T06:30:52.959Z,1.00
2023-08-28T06:33:21.798Z,0.90
2023-08-28T06:35:48.947Z,1.00
2023-08-28T06:38:17.854Z,0.98
2023-08-28T06:40:52.249Z,1.00
2023-08-28T06:43:19.070Z,0.80
2023-08-28T06:45:48.747Z,1.08
2023-08-28T06:48:17.652Z,0.90
2023-08-28T06:50:44.315Z,0.95
2023-08-28T06:53:10.968Z,1.00
2023-08-28T06:55:39.903Z,0.80
2023-08-28T06:58:06.553Z,0.90
2023-08-28T07:00:37.934Z,0.90
2023-08-28T07:03:07.441Z,0.77
2023-08-28T07:05:34.489Z,0.88
2023-08-28T07:08:04.668Z,1.00
2023-08-28T07:10:31.467Z,0.90
2023-08-28T07:13:00.507Z,1.03
2023-08-28T07:15:29.525Z,1.00
2023-08-28T07:17:58.973Z,1.10
2023-08-28T07:20:25.675Z,0.70
2023-08-28T07:22:54.882Z,0.90
2023-08-28T07:25:23.080Z,1.00
2023-08-28T07:27:53.213Z,0.77
2023-08-28T07:30:20.079Z,1.20
2023-08-28T07:32:47.084Z,0.90
2023-08-28T07:35:14.511Z,0.90
2023-08-28T07:37:43.564Z,1.00
2023-08-28T07:40:12.984Z,1.02
2023-08-28T07:42:41.894Z,0.85
2023-08-28T07:45:11.660Z,0.90
2023-08-28T07:47:39.607Z,1.00
2023-08-28T07:50:08.735Z,0.90
2023-08-28T07:52:35.359Z,0.80
2023-08-28T07:55:07.711Z,0.75
2023-08-28T07:57:37.491Z,0.77
2023-08-28T08:00:08.892Z,1.00
2023-08-28T08:02:36.002Z,1.27
2023-08-28T08:05:05.626Z,0.80
2023-08-28T08:07:35.565Z,0.90
2023-08-28T08:10:05.002Z,0.88
2023-08-28T08:12:31.631Z,0.80
2023-08-28T08:14:58.213Z,1.10
2023-08-28T08:17:24.828Z,1.00
2023-08-28T08:19:51.480Z,1.00
2023-08-28T08:22:20.623Z,1.23
2023-08-28T08:24:49.478Z,1.02
2023-08-28T08:27:16.791Z,1.20
2023-08-28T08:29:50.138Z,1.08
2023-08-28T08:32:17.298Z,1.00
2023-08-28T08:34:49.180Z,1.00
2023-08-28T08:37:18.235Z,0.80
2023-08-28T08:39:45.473Z,0.90
2023-08-28T08:42:14.545Z,1.00
2023-08-28T08:44:41.181Z,0.90
2023-08-28T08:47:10.762Z,0.90
2023-08-28T08:49:43.169Z,1.20
2023-08-28T08:52:13.938Z,0.93
2023-08-28T08:54:45.525Z,0.90
2023-08-28T08:57:32.146Z,1.00
2023-08-28T08:59:59.136Z,1.30
2023-08-28T09:02:29.056Z,1.13
2023-08-28T09:04:56.199Z,1.40
2023-08-28T09:07:24.428Z,1.08
2023-08-28T09:09:51.606Z,1.02
2023-08-28T09:12:23.249Z,1.20
2023-08-28T09:14:49.901Z,1.00
2023-08-28T09:17:21.614Z,1.03
2023-08-28T09:19:48.973Z,1.15
2023-08-28T09:22:15.677Z,1.13
2023-08-28T09:24:44.851Z,1.10
2023-08-28T09:27:14.379Z,1.17
2023-08-28T09:29:41.175Z,1.00
2023-08-28T09:32:10.334Z,1.20
2023-08-28T09:34:42.791Z,1.23
2023-08-28T09:37:14.915Z,1.08
2023-08-28T09:39:55.699Z,1.17
2023-08-28T09:42:25.754Z,1.10
2023-08-28T09:44:52.601Z,1.20
2023-08-28T09:47:29.100Z,0.98
2023-08-28T09:49:58.215Z,1.20
2023-08-28T09:52:27.882Z,1.33
2023-08-28T09:55:08.588Z,1.30
2023-08-28T09:57:35.392Z,1.40
2023-08-28T10:00:03.173Z,1.30
2023-08-28T10:02:34.924Z,1.67
2023-08-28T10:05:06.536Z,1.20
2023-08-28T10:07:36.165Z,1.40
2023-08-28T10:10:11.700Z,1.25
2023-08-28T10:12:41.787Z,1.15
2023-08-28T10:15:12.992Z,1.13
2023-08-28T10:17:41.571Z,1.10
2023-08-28T10:20:11.736Z,1.00
2023-08-28T10:22:48.676Z,0.82
2023-08-28T10:25:17.849Z,1.20
2023-08-28T10:27:47.435Z,1.17
2023-08-28T10:30:17.788Z,1.10
2023-08-28T10:32:49.182Z,0.97
2023-08-28T10:35:17.957Z,1.10
2023-08-28T10:37:48.224Z,1.20
2023-08-28T10:40:19.746Z,1.38
2023-08-28T10:42:50.764Z,1.38
2023-08-28T10:45:19.593Z,1.13
2023-08-28T10:47:54.077Z,1.25
2023-08-28T10:50:20.926Z,1.27
2023-08-28T10:52:49.934Z,1.15
2023-08-28T10:55:19.798Z,1.10
2023-08-28T10:57:56.395Z,1.60
2023-08-28T11:00:24.232Z,2.38
2023-08-28T11:03:19.790Z,2.20
2023-08-28T11:05:46.604Z,1.90
2023-08-28T11:08:16.163Z,2.00
2023-08-28T11:10:49.143Z,2.20
2023-08-28T11:13:24.130Z,2.17
2023-08-28T11:16:03.549Z,1.80
2023-08-28T11:18:31.561Z,1.50
2023-08-28T11:21:08.325Z,1.80
2023-08-28T11:23:40.731Z,1.80
2023-08-28T11:26:16.650Z,1.42
2023-08-28T11:28:48.261Z,1.60
2023-08-28T11:31:16.079Z,1.80
2023-08-28T11:33:45.408Z,1.65
2023-08-28T11:36:21.048Z,1.53
2023-08-28T11:38:51.114Z,1.65
2023-08-28T11:41:23.766Z,1.67
2023-08-28T11:43:53.313Z,1.75
2023-08-28T11:46:25.930Z,1.75
2023-08-28T11:48:54.812Z,1.80
2023-08-28T11:51:27.238Z,1.80
2023-08-28T11:53:53.856Z,2.10
2023-08-28T11:56:22.555Z,2.10
2023-08-28T11:58:54.034Z,2.08
2023-08-28T12:01:21.260Z,2.03
2023-08-28T12:03:52.131Z,2.30
2023-08-28T12:06:21.373Z,2.40
2023-08-28T12:08:48.487Z,2.30
2023-08-28T12:11:19.387Z,2.25
2023-08-28T12:13:46.033Z,2.70
2023-08-28T12:16:16.682Z,2.05
2023-08-28T12:18:46.760Z,2.20
2023-08-28T12:21:16.300Z,2.25
2023-08-28T12:23:55.247Z,2.10
2023-08-28T12:26:26.030Z,2.60
2023-08-28T12:28:59.468Z,2.03
2023-08-28T12:31:36.071Z,2.30
2023-08-28T12:34:12.733Z,1.65
2023-08-28T12:36:40.397Z,1.52
2023-08-28T12:39:14.215Z,1.60
2023-08-28T12:41:51.289Z,1.67
2023-08-28T12:44:23.048Z,2.05
2023-08-28T12:46:52.416Z,2.10
2023-08-28T12:49:22.246Z,1.83
2023-08-28T12:51:52.179Z,2.00
2023-08-28T12:54:21.257Z,1.77
2023-08-28T12:56:53.833Z,2.22
2023-08-28T12:59:26.812Z,2.25
2023-08-28T13:01:54.754Z,2.00
2023-08-28T13:04:23.710Z,2.20
2023-08-28T13:06:56.175Z,2.00
2023-08-28T13:09:24.452Z,1.98
2023-08-28T13:11:51.692Z,1.67
2023-08-28T13:14:18.720Z,1.70
2023-08-28T13:16:45.462Z,1.60
2023-08-28T13:19:14.295Z,1.50
2023-08-28T13:21:44.293Z,1.40
2023-08-28T13:24:13.321Z,1.63
2023-08-28T13:26:42.055Z,1.60
2023-08-28T13:29:08.641Z,1.80
2023-08-28T13:31:38.310Z,1.60
2023-08-28T13:34:05.072Z,1.30
2023-08-28T13:36:34.073Z,1.40
2023-08-28T13:39:05.265Z,1.73
2023-08-28T13:41:34.168Z,1.47
2023-08-28T13:44:00.905Z,2.22
2023-08-28T13:46:27.991Z,1.55
2023-08-28T13:48:54.606Z,2.10
2023-08-28T13:51:24.166Z,2.00
2023-08-28T13:53:53.296Z,1.50
2023-08-28T13:56:22.517Z,2.10
2023-08-28T13:58:49.240Z,1.65
2023-08-28T14:01:18.072Z,1.60
2023-08-28T14:03:44.681Z,1.67
2023-08-28T14:06:13.939Z,1.47
2023-08-28T14:08:40.540Z,1.52
2023-08-28T14:11:13.729Z,1.30
2023-08-28T14:13:40.924Z,1.60
2023-08-28T14:16:08.078Z,1.42
2023-08-28T14:18:37.512Z,1.10
2023-08-28T14:21:05.168Z,1.30
2023-08-28T14:23:33.008Z,1.20
2023-08-28T14:26:06.982Z,1.23
2023-08-28T14:28:36.190Z,1.30
2023-08-28T14:31:05.032Z,1.47
2023-08-28T14:33:31.863Z,1.50
2023-08-28T14:36:00.864Z,1.00
2023-08-28T14:38:32.638Z,1.40
2023-08-28T14:40:59.431Z,0.90
2023-08-28T14:43:28.419Z,1.03
2023-08-28T14:45:55.516Z,1.20
2023-08-28T14:48:22.253Z,1.20
2023-08-28T14:50:48.883Z,0.90
2023-08-28T14:53:17.726Z,1.10
2023-08-28T14:55:51.697Z,1.10
2023-08-28T14:58:20.662Z,0.85
2023-08-28T15:00:58.165Z,0.90
2023-08-28T15:03:25.928Z,1.00
2023-08-28T15:05:54.689Z,0.90
2023-08-28T15:08:24.046Z,1.20
2023-08-28T15:10:53.259Z,0.95
2023-08-28T15:13:20.005Z,1.00
2023-08-28T15:15:47.802Z,0.90
2023-08-28T15:18:14.615Z,1.13
2023-08-28T15:20:42.037Z,1.20
2023-08-28T15:23:11.233Z,0.80
2023-08-28T15:25:40.439Z,0.70
2023-08-28T15:28:11.969Z,1.35
2023-08-28T15:30:38.651Z,1.00
2023-08-28T15:33:06.104Z,1.20
2023-08-28T15:35:35.365Z,0.90
2023-08-28T15:38:04.213Z,1.30
2023-08-28T15:40:33.261Z,1.02
2023-08-28T15:42:59.818Z,1.00
2023-08-28T15:45:28.920Z,1.30
2023-08-28T15:47:55.532Z,1.00
2023-08-28T15:50:22.160Z,0.90
2023-08-28T15:52:48.755Z,0.75
2023-08-28T15:55:17.776Z,1.20
2023-08-28T15:57:44.500Z,1.00
2023-08-28T16:00:13.902Z,0.90
2023-08-28T16:02:40.877Z,1.25
2023-08-28T16:05:10.016Z,1.00
2023-08-28T16:07:36.581Z,0.70
2023-08-28T16:10:06.270Z,0.90
2023-08-28T16:12:33.086Z,0.80
2023-08-28T16:15:02.184Z,0.80
2023-08-28T16:17:28.808Z,0.70
2023-08-28T16:19:55.432Z,0.88
2023-08-28T16:22:24.131Z,0.70
2023-08-28T16:24:50.809Z,0.80
2023-08-28T16:27:19.928Z,0.80
2023-08-28T16:29:46.530Z,1.05
2023-08-28T16:32:17.728Z,0.70
2023-08-28T16:34:47.248Z,0.77
2023-08-28T16:37:19.166Z,0.70
2023-08-28T16:39:45.861Z,0.70
2023-08-28T16:42:14.850Z,0.60
2023-08-28T16:44:44.132Z,0.70
2023-08-28T16:47:10.732Z,0.70
2023-08-28T16:49:39.546Z,0.60
2023-08-28T16:52:06.429Z,0.50
2023-08-28T16:54:35.511Z,0.77
2023-08-28T16:57:04.339Z,0.52
2023-08-28T16:59:35.805Z,0.50
2023-08-28T17:02:02.448Z,0.80
2023-08-28T17:04:34.053Z,0.80
2023-08-28T17:07:01.330Z,0.70
2023-08-28T17:09:29.552Z,0.70
2023-08-28T17:12:00.646Z,0.50
2023-08-28T17:14:29.648Z,0.70
2023-08-28T17:16:58.187Z,0.80
2023-08-28T17:19:27.668Z,0.60
2023-08-28T17:21:54.335Z,0.60
2023-08-28T17:24:24.375Z,0.80
2023-08-28T17:26:50.982Z,0.65
2023-08-28T17:29:17.720Z,0.50
2023-08-28T17:31:44.556Z,0.60
2023-08-28T17:34:11.228Z,0.77
2023-08-28T17:36:42.676Z,0.70
2023-08-28T17:39:25.112Z,0.80
2023-08-28T17:41:53.894Z,0.90
2023-08-28T17:44:20.546Z,0.82
2023-08-28T17:46:47.223Z,0.70
2023-08-28T17:49:14.171Z,1.00
2023-08-28T17:51:44.079Z,0.80
2023-08-28T17:54:10.796Z,0.70
2023-08-28T17:56:37.672Z,0.80
2023-08-28T17:59:04.870Z,0.60
2023-08-28T18:01:31.988Z,0.60
2023-08-28T18:03:59.053Z,0.60
2023-08-28T18:06:25.752Z,0.80
2023-08-28T18:08:55.416Z,0.63
2023-08-28T18:11:22.068Z,0.80
2023-08-28T18:13:51.078Z,0.70
2023-08-28T18:16:18.898Z,0.70
2023-08-28T18:18:49.117Z,0.60
2023-08-28T18:21:18.520Z,0.80
2023-08-28T18:23:47.930Z,0.70
2023-08-28T18:26:14.589Z,0.80
2023-08-28T18:28:41.188Z,0.70
2023-08-28T18:31:07.868Z,0.82
2023-08-28T18:33:34.484Z,0.63
2023-08-28T18:36:05.066Z,1.10
2023-08-28T18:38:31.861Z,1.00
2023-08-28T18:41:03.885Z,1.10
2023-08-28T18:43:30.491Z,1.00
2023-08-28T18:46:00.106Z,0.90
2023-08-28T18:48:29.011Z,1.30
2023-08-28T18:50:55.656Z,1.13
2023-08-28T18:53:24.414Z,1.27
2023-08-28T18:55:55.600Z,1.30
2023-08-28T18:58:23.022Z,0.85
2023-08-28T19:00:52.162Z,1.23
2023-08-28T19:03:18.844Z,1.00
2023-08-28T19:05:46.008Z,1.25
2023-08-28T19:08:14.855Z,1.40
2023-08-28T19:10:43.986Z,1.00
2023-08-28T19:13:13.528Z,1.02
2023-08-28T19:15:40.179Z,1.10
2023-08-28T19:18:07.266Z,1.33
2023-08-28T19:20:59.703Z,1.23
2023-08-28T19:23:28.316Z,1.30
2023-08-28T19:25:54.930Z,1.50
2023-08-28T19:28:26.370Z,1.37
2023-08-28T19:30:53.166Z,1.88
2023-08-28T19:33:22.903Z,1.52
2023-08-28T19:35:50.660Z,1.73
2023-08-28T19:38:18.724Z,1.45
2023-08-28T19:40:48.094Z,1.70
2023-08-28T19:43:22.054Z,2.08
2023-08-28T19:45:48.731Z,1.90
2023-08-28T19:48:15.532Z,1.73
2023-08-28T19:50:42.146Z,2.35
2023-08-28T19:53:08.811Z,2.30
2023-08-28T19:55:37.616Z,2.17
2023-08-28T19:58:06.922Z,2.30
2023-08-28T20:00:33.911Z,2.50
2023-08-28T20:03:03.267Z,2.55
2023-08-28T20:05:32.745Z,2.70
2023-08-28T20:07:59.425Z,2.83
2023-08-28T20:10:26.093Z,2.13
2023-08-28T20:12:54.485Z,2.33
2023-08-28T20:15:23.337Z,2.72
2023-08-28T20:17:51.883Z,2.27
2023-08-28T20:20:21.088Z,2.60
2023-08-28T20:22:48.120Z,2.80
2023-08-28T20:25:17.121Z,2.80
2023-08-28T20:27:46.100Z,2.30
2023-08-28T20:30:15.560Z,2.80
2023-08-28T20:32:44.644Z,2.70
2023-08-28T20:35:11.996Z,2.70
2023-08-28T20:37:38.736Z,2.97
2023-08-28T20:40:06.070Z,2.65
2023-08-28T20:42:36.552Z,2.80
2023-08-28T20:45:06.066Z,2.42
2023-08-28T20:47:37.385Z,2.70
2023-08-28T20:50:08.511Z,3.45
2023-08-28T20:52:41.102Z,3.15
2023-08-28T20:55:08.637Z,2.83
2023-08-28T20:57:35.543Z,3.08
2023-08-28T21:00:02.236Z,3.10
2023-08-28T21:02:31.559Z,2.95
2023-08-28T21:05:01.156Z,2.65
2023-08-28T21:07:30.199Z,2.90
2023-08-28T21:09:56.840Z,2.70
2023-08-28T21:12:23.828Z,2.90
2023-08-28T21:14:53.064Z,2.00
2023-08-28T21:17:20.111Z,2.38
2023-08-28T21:19:49.062Z,1.97
2023-08-28T21:22:18.462Z,1.92
2023-08-28T21:24:47.573Z,1.75
2023-08-28T21:27:15.266Z,1.63
2023-08-28T21:29:44.292Z,1.70
2023-08-28T21:32:10.979Z,1.33
2023-08-28T21:34:39.813Z,1.70
2023-08-28T21:37:08.642Z,1.70
2023-08-28T21:39:38.086Z,1.42
2023-08-28T21:42:07.223Z,1.60
2023-08-28T21:44:37.014Z,1.47
2023-08-28T21:47:05.847Z,1.60
2023-08-28T21:49:32.418Z,1.40
2023-08-28T21:51:59.137Z,1.40
2023-08-28T21:54:25.780Z,1.80
2023-08-28T21:56:55.907Z,1.67
2023-08-28T21:59:25.280Z,1.15
2023-08-28T22:01:54.443Z,1.20
2023-08-28T22:04:21.101Z,1.40
2023-08-28T22:06:48.055Z,1.75
2023-08-28T22:09:14.665Z,1.73
2023-08-28T22:11:46.149Z,1.20
2023-08-28T22:14:15.295Z,1.23
2023-08-28T22:16:44.415Z,1.25
2023-08-28T22:19:11.435Z,1.60
2023-08-28T22:21:42.683Z,1.30
2023-08-28T22:24:09.564Z,1.50
2023-08-28T22:26:38.761Z,1.30
2023-08-28T22:29:07.665Z,1.10
2023-08-28T22:31:36.522Z,1.30
2023-08-28T22:34:08.765Z,1.40
2023-08-28T22:36:40.313Z,1.50
2023-08-28T22:39:06.928Z,1.42
2023-08-28T22:41:36.768Z,1.40
2023-08-28T22:44:05.933Z,1.40
2023-08-28T22:46:35.117Z,1.70
2023-08-28T22:49:06.471Z,1.60
2023-08-28T22:51:33.152Z,1.42
2023-08-28T22:53:59.858Z,1.85
2023-08-28T22:56:26.919Z,1.42
2023-08-28T22:58:55.890Z,1.53
2023-08-28T23:01:22.561Z,1.20
2023-08-28T23:03:49.321Z,1.40
2023-08-28T23:06:16.526Z,1.80
2023-08-28T23:08:43.200Z,1.60
2023-08-28T23:11:12.233Z,1.50
2023-08-28T23:13:38.783Z,1.17
2023-08-28T23:16:10.307Z,1.35
2023-08-28T23:18:37.350Z,1.40
2023-08-28T23:21:06.772Z,1.30
2023-08-28T23:23:34.082Z,1.07
2023-08-28T23:26:01.025Z,1.10
2023-08-28T23:28:27.802Z,1.30
2023-08-28T23:30:54.913Z,1.20
2023-08-28T23:33:24.177Z,1.25
2023-08-28T23:35:58.629Z,1.00
2023-08-28T23:38:25.522Z,1.30
2023-08-28T23:40:53.766Z,1.20
2023-08-28T23:43:22.820Z,1.27
2023-08-28T23:45:49.497Z,1.27
2023-08-28T23:48:18.536Z,1.30
2023-08-28T23:50:47.670Z,1.38
2023-08-28T23:53:16.968Z,1.30
2023-08-28T23:55:45.901Z,1.40
2023-08-28T23:58:17.230Z,1.15
